Time;durP1;ratioP1;P1;durP2;ratioP2;P2;SDS_P1;SDS_P2;PMS_P1;PMS_P2;Temp;Humidity;BMP_temperature;BMP_pressure;BME280_temperature;BME280_humidity;BME280_pressure;Samples;Min_cycle;Max_cycle;Signal;HPM_P1;HPM_P2
2022/06/22 00:00:18;;;;;;;6.40;5.90;;;20.60;99.90;;;;;;5074267;28;20448;-85
2022/06/22 00:02:45;;;;;;;5.77;5.17;;;;;;;;;;5077609;28;20441;-86
2022/06/22 00:05:17;;;;;;;6.23;5.73;;;20.60;99.90;;;;;;5076530;28;20452;-90
2022/06/22 00:07:49;;;;;;;5.67;5.17;;;20.70;99.90;;;;;;5075820;28;20450;-88
2022/06/22 00:10:20;;;;;;;6.83;6.10;;;20.60;99.90;;;;;;5078802;28;20442;-85
2022/06/22 00:12:49;;;;;;;8.00;5.83;;;20.60;99.90;;;;;;5076057;28;20497;-84
2022/06/22 00:15:26;;;;;;;6.83;5.70;;;20.60;99.90;;;;;;5079846;28;20452;-84
2022/06/22 00:17:54;;;;;;;6.10;5.60;;;;;;;;;;5079201;28;20449;-90
2022/06/22 00:20:24;;;;;;;5.93;5.33;;;20.50;99.90;;;;;;5077022;28;20445;-87
2022/06/22 00:22:53;;;;;;;7.87;5.53;;;20.50;99.90;;;;;;5076225;28;20457;-88
2022/06/22 00:25:26;;;;;;;6.00;5.23;;;20.40;99.90;;;;;;5077260;28;20457;-86
2022/06/22 00:27:53;;;;;;;6.60;5.90;;;;;;;;;;5076954;28;20450;-87
2022/06/22 00:30:28;;;;;;;7.10;6.40;;;20.40;99.90;;;;;;5077429;28;20461;-85
2022/06/22 00:33:13;;;;;;;7.20;6.50;;;20.30;99.90;;;;;;5075341;28;20513;-85
2022/06/22 00:35:50;;;;;;;7.10;6.50;;;20.20;99.90;;;;;;5075672;28;20450;-84
2022/06/22 00:38:19;;;;;;;7.00;6.30;;;20.20;99.90;;;;;;5069482;28;20453;-90
2022/06/22 00:40:49;;;;;;;7.40;5.73;;;20.10;99.90;;;;;;5075774;28;20824;-85
2022/06/22 00:43:17;;;;;;;7.80;5.73;;;20.10;99.90;;;;;;5076059;28;20532;-86
2022/06/22 00:45:47;;;;;;;6.10;5.60;;;20.00;99.90;;;;;;5072654;28;20442;-89
2022/06/22 00:48:24;;;;;;;7.20;6.60;;;20.00;99.90;;;;;;5075732;28;20450;-86
2022/06/22 00:50:57;;;;;;;8.70;6.47;;;20.00;99.90;;;;;;5075554;28;20450;-85
2022/06/22 00:53:31;;;;;;;10.67;6.60;;;20.00;99.90;;;;;;5070643;28;20933;-84
2022/06/22 00:56:08;;;;;;;7.00;6.40;;;20.10;99.90;;;;;;5075228;28;20469;-85
2022/06/22 00:58:42;;;;;;;6.63;6.10;;;20.20;99.90;;;;;;5075031;28;20449;-86
2022/06/22 01:01:20;;;;;;;6.93;6.33;;;20.20;99.90;;;;;;5075099;28;20458;-84
2022/06/22 01:03:54;;;;;;;5.80;5.30;;;19.30;99.90;;;;;;5075145;28;20446;-85
2022/06/22 01:06:27;;;;;;;9.97;7.00;;;20.30;99.90;;;;;;5075337;28;20797;-84
2022/06/22 01:09:00;;;;;;;7.40;6.80;;;20.30;99.90;;;;;;5070715;28;20951;-85
2022/06/22 01:14:21;;;;;;;8.63;7.10;;;20.30;99.90;;;;;;5068550;28;20492;-84
2022/06/22 01:16:53;;;;;;;6.43;5.83;;;20.20;99.90;;;;;;5075758;28;20452;-86
2022/06/22 01:19:38;;;;;;;7.07;6.43;;;20.00;99.90;;;;;;5075408;28;20461;-91
2022/06/22 01:22:17;;;;;;;7.33;6.63;;;20.10;99.90;;;;;;5074248;28;20572;-86
2022/06/22 01:24:53;;;;;;;6.90;6.30;;;20.10;99.90;;;;;;5075184;28;20449;-88
2022/06/22 01:27:32;;;;;;;7.77;6.97;;;20.10;99.90;;;;;;5075321;28;20776;-90
2022/06/22 01:30:02;;;;;;;7.10;6.43;;;20.10;99.90;;;;;;5074506;28;20449;-84
2022/06/22 01:32:32;;;;;;;6.50;5.90;;;20.00;99.90;;;;;;5073277;28;20496;-85
2022/06/22 01:35:02;;;;;;;8.10;6.10;;;20.10;99.90;;;;;;5073956;28;20453;-84
2022/06/22 01:37:31;;;;;;;9.23;6.90;;;20.00;99.90;;;;;;5072888;28;20819;-84
2022/06/22 01:40:06;;;;;;;7.40;6.70;;;19.90;99.90;;;;;;5073894;28;20457;-84
2022/06/22 01:42:41;;;;;;;6.50;5.90;;;19.90;99.90;;;;;;5073877;28;20846;-84
2022/06/22 01:45:16;;;;;;;7.60;6.90;;;20.20;99.90;;;;;;5065710;28;20441;-84
2022/06/22 01:47:51;;;;;;;7.17;6.40;;;19.80;99.90;;;;;;5070819;28;20943;-85
2022/06/22 01:50:26;;;;;;;8.50;7.10;;;19.90;99.90;;;;;;5074137;28;20536;-84
2022/06/22 01:53:05;;;;;;;7.23;6.53;;;20.00;99.90;;;;;;5072349;28;20546;-84
2022/06/22 01:55:39;;;;;;;7.93;7.13;;;20.10;99.90;;;;;;5073501;28;20476;-85
2022/06/22 01:58:28;;;;;;;7.17;6.53;;;20.20;99.90;;;;;;5073478;28;20449;-83
2022/06/22 02:01:00;;;;;;;8.20;7.33;;;21.40;99.90;;;;;;5073521;28;20449;-84
2022/06/22 02:03:32;;;;;;;8.20;7.40;;;20.30;99.90;;;;;;5069011;28;20449;-83
2022/06/22 02:07:44;;;;;;;9.13;7.03;;;20.30;99.90;;;;;;5073572;28;20457;-86
2022/06/22 02:08:50;;;;;;;7.77;7.00;;;;;;;;;;5072250;28;20504;-85
2022/06/22 02:11:21;;;;;;;7.60;6.90;;;20.00;99.90;;;;;;5073572;28;20461;-86
2022/06/22 02:13:55;;;;;;;7.33;6.70;;;20.30;99.90;;;;;;5073445;28;20500;-88
2022/06/22 02:16:27;;;;;;;8.17;6.90;;;20.30;99.90;;;;;;5073438;28;20441;-87
2022/06/22 02:19:10;;;;;;;8.20;7.40;;;20.30;99.90;;;;;;5073541;28;20445;-88
2022/06/22 02:21:40;;;;;;;8.60;7.80;;;20.20;99.90;;;;;;5073510;28;20446;-87
2022/06/22 02:24:12;;;;;;;7.33;6.67;;;20.10;99.90;;;;;;5072316;28;20450;-86
2022/06/22 02:26:46;;;;;;;7.70;7.00;;;20.10;99.90;;;;;;5073181;28;20485;-83
2022/06/22 02:29:18;;;;;;;7.53;6.80;;;20.10;99.90;;;;;;5073042;28;20449;-83
2022/06/22 02:31:46;;;;;;;8.00;6.97;;;;;;;;;;5069887;28;20936;-83
2022/06/22 02:34:17;;;;;;;7.20;6.60;;;20.00;99.90;;;;;;5072674;28;20567;-85
2022/06/22 02:36:47;;;;;;;10.60;7.93;;;20.00;99.90;;;;;;5072838;28;20457;-84
2022/06/22 02:39:16;;;;;;;8.33;7.57;;;20.10;99.90;;;;;;5067599;28;20843;-83
2022/06/22 02:44:33;;;;;;;7.73;6.93;;;20.10;99.90;;;;;;5072142;28;20433;-84
2022/06/22 02:47:11;;;;;;;9.07;8.23;;;20.00;99.90;;;;;;5069796;28;20496;-83
2022/06/22 02:49:44;;;;;;;8.57;7.77;;;20.00;99.90;;;;;;5072750;28;20449;-83
2022/06/22 02:52:12;;;;;;;8.77;7.60;;;20.00;99.90;;;;;;5071570;28;20449;-83
2022/06/22 02:54:45;;;;;;;7.83;7.13;;;20.00;99.90;;;;;;5072706;28;20473;-84
2022/06/22 02:57:19;;;;;;;7.90;7.20;;;20.10;99.90;;;;;;5072567;28;20928;-82
2022/06/22 02:59:49;;;;;;;8.83;7.97;;;20.10;99.90;;;;;;5072765;28;20456;-84
2022/06/22 03:02:17;;;;;;;7.70;7.00;;;20.00;99.90;;;;;;5070071;28;20446;-88
2022/06/22 03:04:46;;;;;;;8.50;7.53;;;20.10;99.90;;;;;;5072674;28;20446;-83
2022/06/22 03:07:13;;;;;;;7.87;7.20;;;;;;;;;;5071432;28;20453;-83
2022/06/22 03:09:42;;;;;;;11.30;7.57;;;20.00;99.90;;;;;;5072476;28;20456;-83
2022/06/22 03:12:12;;;;;;;7.90;7.20;;;20.00;99.90;;;;;;5072482;28;20449;-83
2022/06/22 03:14:52;;;;;;;7.97;7.30;;;20.00;99.90;;;;;;5072529;28;20449;-85
2022/06/22 03:17:22;;;;;;;8.60;7.90;;;19.90;99.90;;;;;;5072502;28;20971;-85
2022/06/22 03:19:53;;;;;;;10.97;8.27;;;19.80;99.90;;;;;;5072603;28;21013;-83
2022/06/22 03:22:24;;;;;;;7.43;6.73;;;19.80;99.90;;;;;;5071068;28;20441;-84
2022/06/22 03:24:55;;;;;;;7.40;6.70;;;19.70;99.90;;;;;;5072506;28;20453;-84
2022/06/22 03:27:28;;;;;;;7.90;6.83;;;19.60;99.90;;;;;;5072382;28;20445;-83
2022/06/22 03:29:59;;;;;;;8.10;7.37;;;19.60;99.90;;;;;;5072437;28;20454;-84
2022/06/22 03:32:31;;;;;;;7.80;7.10;;;19.50;99.90;;;;;;5072288;28;20501;-83
2022/06/22 03:35:03;;;;;;;7.73;7.03;;;19.50;99.90;;;;;;5072150;28;20449;-83
2022/06/22 03:37:35;;;;;;;8.00;7.30;;;19.50;99.90;;;;;;5068612;28;20813;-86
2022/06/22 03:40:12;;;;;;;8.60;7.50;;;19.40;99.90;;;;;;5072313;28;20467;-83
2022/06/22 03:42:47;;;;;;;7.80;7.10;;;19.40;99.90;;;;;;5072257;28;20453;-83
2022/06/22 03:45:19;;;;;;;8.00;7.30;;;19.40;99.90;;;;;;5072362;28;20798;-83
2022/06/22 03:47:56;;;;;;;8.93;8.03;;;19.40;99.90;;;;;;5072341;28;20485;-83
2022/06/22 03:50:32;;;;;;;11.60;8.00;;;19.40;99.90;;;;;;5072148;28;20502;-83
2022/06/22 03:53:04;;;;;;;8.37;7.67;;;19.40;99.90;;;;;;5068411;28;20477;-83
2022/06/22 03:55:35;;;;;;;8.93;8.03;;;19.30;99.90;;;;;;5073546;28;20450;-85
2022/06/22 03:58:04;;;;;;;7.80;7.00;;;19.40;99.90;;;;;;5075866;28;20460;-84
2022/06/22 04:00:36;;;;;;;8.40;7.70;;;19.40;99.90;;;;;;5075759;28;20449;-84
2022/06/22 04:03:05;;;;;;;8.90;8.10;;;19.40;99.90;;;;;;5072630;28;20463;-83
2022/06/22 04:05:37;;;;;;;8.80;7.40;;;19.40;99.90;;;;;;5075770;28;20437;-83
2022/06/22 04:08:04;;;;;;;8.23;7.43;;;;;;;;;;5074442;28;20437;-83
2022/06/22 04:10:40;;;;;;;7.47;6.87;;;19.50;99.90;;;;;;5075408;28;20445;-83
2022/06/22 04:13:14;;;;;;;9.10;7.33;;;19.50;99.90;;;;;;5075428;28;20999;-83
2022/06/22 04:15:47;;;;;;;8.60;7.80;;;19.60;99.90;;;;;;5075681;28;20452;-83
2022/06/22 04:18:20;;;;;;;7.40;6.80;;;19.60;99.90;;;;;;5075736;28;20446;-83
2022/06/22 04:20:51;;;;;;;8.10;7.40;;;19.70;99.90;;;;;;5075429;28;20453;-85
2022/06/22 04:23:24;;;;;;;8.10;7.40;;;19.70;99.90;;;;;;5071230;28;20503;-84
2022/06/22 04:25:53;;;;;;;8.47;7.60;;;19.60;99.90;;;;;;5073121;28;20460;-91
2022/06/22 04:28:21;;;;;;;8.30;7.60;;;19.70;99.90;;;;;;5075759;28;20452;-86
2022/06/22 04:30:52;;;;;;;7.57;6.90;;;19.70;99.90;;;;;;5075519;28;20477;-88
2022/06/22 04:33:23;;;;;;;9.40;8.20;;;19.70;99.90;;;;;;5075207;28;20536;-82
2022/06/22 04:35:55;;;;;;;8.53;7.53;;;19.70;99.90;;;;;;5071529;28;20813;-84
2022/06/22 04:38:28;;;;;;;9.83;8.10;;;19.80;99.90;;;;;;5074872;28;20454;-86
2022/06/22 04:41:00;;;;;;;8.40;7.43;;;19.80;99.90;;;;;;5073679;28;20453;-89
2022/06/22 04:43:28;;;;;;;8.90;8.03;;;19.80;99.90;;;;;;5076448;28;20450;-89
2022/06/22 04:45:57;;;;;;;9.30;8.40;;;19.80;99.90;;;;;;5076161;28;20803;-88
2022/06/22 04:48:28;;;;;;;8.80;7.87;;;19.90;99.90;;;;;;5071126;28;20476;-85
2022/06/22 04:50:59;;;;;;;9.63;8.67;;;20.00;99.90;;;;;;5072266;28;20453;-83
2022/06/22 04:53:31;;;;;;;7.47;6.87;;;20.00;99.90;;;;;;5073751;28;20497;-83
2022/06/22 04:56:01;;;;;;;8.20;7.40;;;20.00;99.90;;;;;;5074817;28;20442;-83
2022/06/22 04:58:36;;;;;;;7.80;7.10;;;20.20;99.90;;;;;;5074586;28;20523;-83
2022/06/22 05:01:05;;;;;;;8.00;7.20;;;20.20;99.90;;;;;;5074598;28;20445;-87
2022/06/22 05:03:32;;;;;;;8.43;7.60;;;;;;;;;;5070443;28;20480;-83
2022/06/22 05:06:04;;;;;;;7.97;7.30;;;20.40;99.90;;;;;;5074496;28;20472;-83
2022/06/22 05:08:37;;;;;;;8.80;8.00;;;20.40;99.90;;;;;;5072524;28;20544;-83
2022/06/22 05:11:12;;;;;;;7.60;7.00;;;20.50;99.90;;;;;;5074749;28;20449;-83
2022/06/22 05:13:42;;;;;;;8.93;8.03;;;20.50;99.90;;;;;;5074472;28;20481;-83
2022/06/22 05:16:15;;;;;;;8.67;7.87;;;20.60;99.90;;;;;;5074342;28;20523;-83
2022/06/22 05:18:43;;;;;;;8.83;7.97;;;20.70;99.90;;;;;;5070226;28;20457;-84
2022/06/22 05:21:16;;;;;;;8.27;7.43;;;20.70;99.90;;;;;;5074204;28;20786;-82
2022/06/22 05:23:46;;;;;;;8.27;7.57;;;20.90;99.90;;;;;;5068361;28;20457;-83
2022/06/22 05:26:18;;;;;;;10.43;7.20;;;21.10;99.90;;;;;;5074275;28;20442;-82
2022/06/22 05:28:49;;;;;;;7.40;6.70;;;21.30;99.90;;;;;;5074206;28;20449;-83
2022/06/22 05:31:22;;;;;;;9.00;7.47;;;21.40;99.90;;;;;;5073946;28;20454;-83
2022/06/22 05:33:53;;;;;;;7.37;6.70;;;21.60;99.90;;;;;;5073529;28;20529;-83
2022/06/22 05:36:23;;;;;;;7.87;7.00;;;21.80;99.90;;;;;;5073912;28;20445;-83
2022/06/22 05:38:56;;;;;;;6.87;6.23;;;22.10;99.90;;;;;;5073149;28;20454;-90
2022/06/22 05:41:30;;;;;;;6.83;6.23;;;22.10;99.90;;;;;;5073785;28;20449;-88
2022/06/22 05:43:59;;;;;;;6.87;5.57;;;22.20;99.90;;;;;;5070855;28;20446;-88
2022/06/22 05:46:31;;;;;;;7.33;6.60;;;22.10;99.90;;;;;;5073899;28;20453;-87
2022/06/22 05:48:59;;;;;;;6.80;6.10;;;;;;;;;;5067078;28;20576;-89
2022/06/22 05:51:34;;;;;;;6.50;5.90;;;22.10;99.90;;;;;;5074778;28;20941;-93
2022/06/22 05:54:05;;;;;;;8.20;5.67;;;22.00;99.90;;;;;;5073581;28;20499;-89
2022/06/22 05:56:36;;;;;;;9.23;6.43;;;21.90;99.90;;;;;;5073953;28;20445;-88
2022/06/22 05:59:10;;;;;;;7.17;6.50;;;21.80;99.90;;;;;;5070346;28;20465;-87
2022/06/22 06:01:46;;;;;;;7.30;6.53;;;21.70;99.90;;;;;;5070794;28;20450;-88
2022/06/22 06:04:24;;;;;;;6.47;5.83;;;21.60;99.90;;;;;;5073961;28;20510;-89
2022/06/22 06:06:55;;;;;;;7.20;6.60;;;21.50;99.90;;;;;;5070934;28;20442;-88
2022/06/22 06:09:25;;;;;;;7.43;6.47;;;21.40;99.90;;;;;;5068774;28;20456;-88
2022/06/22 06:11:59;;;;;;;7.10;6.40;;;21.30;99.90;;;;;;5073645;28;20521;-88
2022/06/22 06:14:30;;;;;;;7.97;7.13;;;21.30;99.90;;;;;;5073562;28;20495;-89
2022/06/22 06:17:05;;;;;;;8.10;7.20;;;21.30;99.90;;;;;;5070105;28;20449;-91
2022/06/22 06:19:34;;;;;;;8.60;7.10;;;;;;;;;;5070630;28;20924;-89
2022/06/22 06:22:04;;;;;;;10.00;7.87;;;21.00;99.90;;;;;;5072129;28;20479;-86
2022/06/22 06:24:36;;;;;;;7.70;7.00;;;20.90;99.90;;;;;;5074555;28;20527;-89
2022/06/22 06:29:58;;;;;;;7.50;6.80;;;20.90;99.90;;;;;;5074270;28;20528;-87
2022/06/22 06:32:45;;;;;;;7.13;6.40;;;20.80;99.90;;;;;;5069945;28;20560;-89
2022/06/22 06:35:20;;;;;;;7.40;6.53;;;20.70;99.90;;;;;;5073607;28;20485;-89
2022/06/22 06:37:55;;;;;;;7.20;6.60;;;20.60;99.90;;;;;;5071381;28;20433;-85
2022/06/22 06:40:35;;;;;;;8.57;7.27;;;20.50;99.90;;;;;;5075734;28;20437;-90
2022/06/22 06:43:16;;;;;;;8.97;8.00;;;20.30;99.90;;;;;;5075341;28;20459;-91
2022/06/22 06:45:43;;;;;;;8.07;7.17;;;;;;;;;;5076963;28;20958;-93
2022/06/22 06:48:20;;;;;;;8.90;7.53;;;20.20;99.90;;;;;;5080193;28;20449;-92
2022/06/22 06:50:50;;;;;;;9.23;7.83;;;;;;;;;;5085716;28;20428;-93
2022/06/22 06:53:25;;;;;;;8.50;7.70;;;20.20;99.90;;;;;;5080137;28;20454;-92
2022/06/22 06:55:56;;;;;;;9.27;7.97;;;;;;;;;;5072048;28;20524;-93
2022/06/22 06:58:31;;;;;;;9.00;8.20;;;19.90;99.90;;;;;;5077528;28;20470;-91
2022/06/22 07:00:58;;;;;;;8.63;7.83;;;19.80;99.90;;;;;;5073707;28;20950;-89
2022/06/22 07:03:31;;;;;;;9.37;8.43;;;19.60;99.90;;;;;;5069031;28;20465;-86
2022/06/22 07:05:58;;;;;;;9.03;8.23;;;;;;;;;;5073424;28;20812;-87
2022/06/22 07:08:30;;;;;;;10.90;8.40;;;19.70;99.90;;;;;;5073316;28;20464;-87
2022/06/22 07:11:03;;;;;;;9.43;8.53;;;19.70;99.90;;;;;;5074079;28;20446;-87
2022/06/22 07:13:34;;;;;;;9.13;8.23;;;19.80;99.90;;;;;;5070692;28;20449;-88
2022/06/22 07:16:06;;;;;;;12.17;9.70;;;19.80;99.90;;;;;;5072500;28;20508;-84
2022/06/22 07:18:40;;;;;;;10.17;9.17;;;19.90;99.90;;;;;;5072549;28;20445;-85
2022/06/22 07:21:15;;;;;;;9.70;8.63;;;19.90;99.90;;;;;;5064603;28;20461;-85
2022/06/22 07:23:46;;;;;;;12.90;8.50;;;20.00;99.90;;;;;;5064942;28;20469;-83
2022/06/22 07:26:20;;;;;;;9.27;8.47;;;20.10;99.90;;;;;;5072120;28;20449;-83
2022/06/22 07:28:54;;;;;;;9.20;8.40;;;20.20;99.90;;;;;;5066168;28;20453;-86
2022/06/22 07:31:26;;;;;;;9.13;7.60;;;20.30;99.90;;;;;;5070148;28;20437;-84
2022/06/22 07:34:01;;;;;;;12.53;8.77;;;20.40;99.90;;;;;;5076240;28;20520;-85
2022/06/22 07:36:34;;;;;;;9.90;8.93;;;20.50;99.90;;;;;;5085891;28;20445;-83
2022/06/22 07:39:07;;;;;;;9.47;8.57;;;20.60;99.90;;;;;;5100864;28;20449;-84
2022/06/22 07:41:35;;;;;;;8.10;7.37;;;20.50;99.90;;;;;;5080832;28;20520;-83
2022/06/22 07:44:04;;;;;;;8.77;8.07;;;20.50;99.90;;;;;;5076338;28;20457;-87
2022/06/22 07:46:37;;;;;;;9.37;7.63;;;20.60;99.90;;;;;;5076439;28;20495;-86
2022/06/22 07:49:10;;;;;;;10.00;8.50;;;20.60;99.90;;;;;;5076417;28;20794;-87
2022/06/22 07:51:43;;;;;;;8.53;7.83;;;20.90;99.90;;;;;;5070842;28;20446;-88
2022/06/22 07:54:14;;;;;;;8.80;7.90;;;21.00;99.90;;;;;;5071274;28;20473;-81
2022/06/22 07:56:52;;;;;;;8.83;8.03;;;21.20;99.90;;;;;;5075993;28;20456;-84
2022/06/22 07:59:24;;;;;;;8.60;7.70;;;21.60;99.90;;;;;;5072852;28;20446;-85
2022/06/22 08:01:59;;;;;;;8.67;7.40;;;21.40;99.90;;;;;;5075144;28;20960;-83
2022/06/22 08:04:32;;;;;;;9.00;8.20;;;21.20;99.90;;;;;;5041565;28;20460;-83
2022/06/22 08:07:04;;;;;;;8.73;8.00;;;21.50;99.90;;;;;;5095069;28;20443;-83
2022/06/22 08:09:37;;;;;;;10.50;8.10;;;21.10;99.90;;;;;;5060555;28;20466;-84
2022/06/22 08:12:10;;;;;;;10.00;9.10;;;21.10;99.90;;;;;;5058906;28;20469;-83
2022/06/22 08:14:41;;;;;;;10.07;8.20;;;21.20;99.90;;;;;;5075366;28;20521;-83
2022/06/22 08:17:13;;;;;;;8.97;7.90;;;21.20;99.90;;;;;;5075578;28;20445;-85
2022/06/22 08:19:43;;;;;;;8.67;7.93;;;21.30;99.90;;;;;;5075502;28;20445;-86
2022/06/22 08:22:13;;;;;;;8.80;7.90;;;21.30;99.90;;;;;;5074227;28;20445;-85
2022/06/22 08:24:45;;;;;;;10.23;9.23;;;21.10;99.90;;;;;;5075851;28;20441;-86
2022/06/22 08:27:16;;;;;;;8.77;7.87;;;21.10;99.90;;;;;;5075580;28;20453;-88
2022/06/22 08:29:43;;;;;;;10.37;9.33;;;;;;;;;;5075492;28;20445;-87
2022/06/22 08:32:17;;;;;;;9.70;8.80;;;21.20;99.90;;;;;;5072395;28;20450;-85
2022/06/22 08:34:49;;;;;;;9.23;8.33;;;21.10;99.90;;;;;;5075154;28;20489;-83
2022/06/22 08:37:21;;;;;;;9.40;8.60;;;21.20;99.90;;;;;;5073934;28;20946;-85
2022/06/22 08:39:52;;;;;;;9.57;8.60;;;21.10;99.90;;;;;;5075267;28;20450;-88
2022/06/22 08:42:31;;;;;;;9.47;8.47;;;21.10;99.90;;;;;;5075103;28;20457;-85
2022/06/22 08:45:14;;;;;;;9.73;8.80;;;21.00;99.90;;;;;;5075106;28;20452;-87
2022/06/22 08:47:57;;;;;;;9.83;8.70;;;20.90;99.90;;;;;;5075066;28;20453;-85
2022/06/22 08:50:49;;;;;;;13.53;8.60;;;20.80;99.90;;;;;;5074305;28;20493;-85
2022/06/22 08:53:34;;;;;;;9.60;8.60;;;20.80;99.90;;;;;;5030630;28;20446;-86
2022/06/22 08:56:15;;;;;;;9.93;9.03;;;20.90;99.90;;;;;;5071400;28;20924;-86
2022/06/22 08:59:08;;;;;;;10.00;9.00;;;21.10;99.90;;;;;;5070563;28;20460;-85
2022/06/22 09:01:45;;;;;;;11.03;8.77;;;21.00;99.90;;;;;;5030645;28;20445;-84
2022/06/22 09:04:36;;;;;;;9.10;8.20;;;20.90;99.90;;;;;;5074610;28;20452;-86
2022/06/22 09:07:41;;;;;;;8.80;8.10;;;20.70;99.90;;;;;;5062063;28;20444;-85
2022/06/22 09:10:40;;;;;;;10.63;9.53;;;20.80;99.90;;;;;;5044300;28;20445;-84
2022/06/22 09:13:40;;;;;;;9.97;9.07;;;20.60;99.90;;;;;;5074745;28;20488;-84
2022/06/22 09:16:23;;;;;;;8.97;8.13;;;20.70;99.90;;;;;;5074582;28;20501;-84
2022/06/22 09:19:07;;;;;;;11.63;10.20;;;20.70;99.90;;;;;;5074503;28;20442;-84
2022/06/22 09:21:48;;;;;;;11.10;10.10;;;20.70;99.90;;;;;;5074670;28;20460;-83
2022/06/22 09:24:21;;;;;;;10.60;9.40;;;20.70;99.90;;;;;;5072989;28;20453;-81
2022/06/22 09:27:02;;;;;;;11.07;9.90;;;20.70;99.90;;;;;;5074517;28;20495;-85
2022/06/22 09:29:43;;;;;;;11.20;9.97;;;20.80;99.90;;;;;;5074082;28;20446;-87
2022/06/22 09:32:52;;;;;;;9.63;8.53;;;20.60;99.90;;;;;;5074491;28;20441;-85
2022/06/22 09:35:38;;;;;;;10.90;9.83;;;20.30;99.90;;;;;;5016485;28;20485;-86
2022/06/22 09:38:40;;;;;;;10.37;9.40;;;20.80;99.90;;;;;;5073653;28;20456;-85
2022/06/22 09:41:16;;;;;;;10.30;9.40;;;21.00;99.90;;;;;;5073630;28;20447;-83
2022/06/22 09:44:10;;;;;;;9.77;8.87;;;21.00;99.90;;;;;;5073424;28;20451;-84
2022/06/22 09:47:20;;;;;;;10.20;9.23;;;21.10;99.90;;;;;;5074269;28;20441;-87
2022/06/22 09:50:32;;;;;;;10.10;9.07;;;21.10;99.90;;;;;;5074260;28;20456;-86
2022/06/22 09:53:41;;;;;;;9.40;8.60;;;21.10;99.90;;;;;;5072303;28;20454;-86
2022/06/22 09:56:27;;;;;;;8.97;8.27;;;21.10;99.90;;;;;;5050069;28;20485;-87
2022/06/22 09:59:39;;;;;;;9.97;9.07;;;21.00;99.90;;;;;;5068400;28;20504;-88
2022/06/22 10:02:18;;;;;;;9.50;8.80;;;21.10;99.90;;;;;;5065299;28;20972;-86
2022/06/22 10:05:23;;;;;;;10.07;9.17;;;21.00;99.90;;;;;;5073451;28;20940;-86
2022/06/22 10:07:59;;;;;;;9.83;8.80;;;21.00;99.90;;;;;;5072310;28;20441;-85
2022/06/22 10:10:38;;;;;;;11.03;10.00;;;21.10;99.90;;;;;;5073401;28;20454;-86
2022/06/22 10:13:47;;;;;;;11.30;9.17;;;20.90;99.90;;;;;;5080611;28;20472;-86
2022/06/22 10:16:32;;;;;;;9.87;8.90;;;20.80;99.90;;;;;;5098070;28;20499;-87
2022/06/22 10:19:20;;;;;;;10.50;9.60;;;20.80;99.90;;;;;;5074291;28;20457;-86
2022/06/22 10:22:08;;;;;;;10.77;9.70;;;20.70;99.90;;;;;;5073177;28;20936;-84
2022/06/22 10:24:57;;;;;;;10.27;9.23;;;20.60;99.90;;;;;;5059236;28;20477;-82
2022/06/22 10:27:43;;;;;;;11.80;10.53;;;20.40;99.90;;;;;;5053219;28;20461;-83
2022/06/22 10:30:26;;;;;;;10.80;9.70;;;20.10;99.90;;;;;;5053132;28;20809;-83
2022/06/22 10:33:16;;;;;;;9.23;8.40;;;19.70;99.90;;;;;;5069973;28;20473;-83
2022/06/22 10:36:10;;;;;;;8.63;7.73;;;19.80;99.90;;;;;;5069693;28;20482;-83
2022/06/22 10:38:54;;;;;;;9.13;8.00;;;19.90;99.90;;;;;;5071802;28;20457;-83
2022/06/22 10:47:51;;;;;;;7.60;6.83;;;19.80;99.90;;;;;;5072585;28;20441;-83
2022/06/22 10:50:34;;;;;;;9.40;8.40;;;19.90;99.90;;;;;;5073020;28;20460;-85
2022/06/22 10:53:15;;;;;;;9.80;8.83;;;19.80;99.90;;;;;;5071699;28;20437;-85
2022/06/22 10:55:52;;;;;;;10.00;8.97;;;19.90;99.90;;;;;;5072894;28;20491;-88
2022/06/22 10:58:44;;;;;;;10.40;9.00;;;19.90;99.90;;;;;;5071116;28;20460;-84
2022/06/22 11:01:31;;;;;;;10.60;9.70;;;19.80;99.90;;;;;;5067327;28;20457;-85
2022/06/22 11:04:36;;;;;;;11.03;9.70;;;19.50;99.90;;;;;;5072993;28;20970;-84
2022/06/22 11:07:29;;;;;;;9.17;8.27;;;19.70;99.90;;;;;;5076163;28;20445;-85
2022/06/22 11:10:21;;;;;;;9.07;8.23;;;19.70;99.90;;;;;;5077991;28;20460;-87
2022/06/22 11:13:05;;;;;;;12.80;9.40;;;19.80;99.90;;;;;;5071359;28;20484;-84
2022/06/22 11:15:59;;;;;;;10.87;9.77;;;19.90;99.90;;;;;;5076697;28;20497;-85
2022/06/22 11:18:42;;;;;;;12.60;9.20;;;19.90;99.90;;;;;;5074363;28;20462;-85
2022/06/22 11:21:21;;;;;;;10.00;9.10;;;20.00;99.90;;;;;;5072657;28;20456;-86
2022/06/22 11:24:25;;;;;;;9.50;8.67;;;20.00;99.90;;;;;;5075477;28;20456;-84
2022/06/22 11:32:53;;;;;;;9.83;8.90;;;19.80;99.90;;;;;;5076110;28;20533;-84
2022/06/22 11:35:55;;;;;;;12.37;8.93;;;20.10;99.90;;;;;;5076076;28;21049;-85
2022/06/22 11:38:40;;;;;;;9.17;8.23;;;20.10;99.90;;;;;;4993678;28;20460;-82
2022/06/22 11:41:20;;;;;;;9.80;8.83;;;20.10;99.90;;;;;;5069466;28;20874;-84
2022/06/22 11:44:13;;;;;;;9.53;8.63;;;20.20;99.90;;;;;;5076420;28;20464;-82
2022/06/22 11:46:42;;;;;;;10.37;9.37;;;21.20;99.90;;;;;;5076242;28;20809;-83
2022/06/22 11:49:39;;;;;;;11.23;10.13;;;20.10;99.90;;;;;;5076252;28;20445;-83
2022/06/22 11:52:27;;;;;;;14.37;10.00;;;20.20;99.90;;;;;;5072971;28;20454;-83
2022/06/22 11:55:20;;;;;;;11.47;10.27;;;20.20;99.90;;;;;;5075963;28;20989;-84
2022/06/22 11:58:22;;;;;;;10.90;9.80;;;20.40;99.90;;;;;;5075692;28;20453;-82
2022/06/22 12:00:59;;;;;;;10.90;9.10;;;20.40;99.90;;;;;;5076184;28;20440;-83
2022/06/22 12:03:57;;;;;;;10.27;7.87;;;20.50;99.90;;;;;;5076460;28;20448;-83
2022/06/22 12:07:02;;;;;;;12.73;8.40;;;20.60;99.90;;;;;;5075910;28;20497;-83
2022/06/22 12:09:49;;;;;;;7.47;6.77;;;20.40;99.90;;;;;;5070412;28;20449;-83
2022/06/22 12:12:43;;;;;;;11.17;8.07;;;20.40;99.90;;;;;;5075664;28;20461;-83
2022/06/22 12:15:23;;;;;;;7.50;4.00;;;20.30;99.90;;;;;;5072633;28;20995;-83
2022/06/22 12:18:02;;;;;;;5.90;5.30;;;20.20;99.90;;;;;;5075384;28;20453;-82
2022/06/22 12:20:40;;;;;;;6.90;4.47;;;20.10;99.90;;;;;;5075465;28;20809;-83
2022/06/22 12:23:18;;;;;;;8.37;4.97;;;20.20;99.90;;;;;;5074232;28;20477;-83
2022/06/22 12:25:56;;;;;;;7.53;4.60;;;20.20;99.90;;;;;;5071299;28;20819;-83
2022/06/22 12:28:57;;;;;;;5.97;3.77;;;20.10;99.90;;;;;;5071889;28;20453;-85
2022/06/22 12:31:25;;;;;;;6.17;4.93;;;20.20;99.90;;;;;;5048690;28;20486;-83
2022/06/22 12:33:59;;;;;;;8.13;5.20;;;20.20;99.90;;;;;;5054844;28;20490;-83
2022/06/22 12:36:32;;;;;;;5.83;4.30;;;20.30;99.90;;;;;;5054808;28;20486;-83
2022/06/22 12:39:06;;;;;;;7.63;4.93;;;20.30;99.90;;;;;;5053655;28;20453;-83
2022/06/22 12:41:47;;;;;;;6.63;5.20;;;20.30;99.90;;;;;;5054691;28;20812;-83
2022/06/22 12:44:56;;;;;;;8.97;4.60;;;20.40;99.90;;;;;;5054097;28;20458;-84
2022/06/22 12:47:42;;;;;;;10.20;4.70;;;20.30;99.90;;;;;;5071148;28;21077;-83
2022/06/22 12:50:36;;;;;;;6.40;4.37;;;20.40;99.90;;;;;;5065936;28;20454;-84
2022/06/22 12:53:08;;;;;;;10.53;5.00;;;20.40;99.90;;;;;;5098794;28;20429;-84
2022/06/22 12:55:39;;;;;;;10.60;3.90;;;20.50;99.90;;;;;;5084636;28;20481;-84
2022/06/22 12:58:11;;;;;;;8.70;4.10;;;20.70;99.90;;;;;;5075187;28;20453;-84
2022/06/22 13:00:41;;;;;;;5.60;4.93;;;20.60;99.90;;;;;;5074476;28;20454;-84
2022/06/22 13:03:17;;;;;;;8.20;4.30;;;20.40;99.90;;;;;;5074366;28;20453;-82
2022/06/22 13:05:44;;;;;;;13.40;5.33;;;;;;;;;;5054708;28;20835;-84
2022/06/22 13:08:16;;;;;;;6.90;3.40;;;20.50;99.90;;;;;;5053989;28;20446;-84
2022/06/22 13:10:46;;;;;;;12.63;3.57;;;20.60;99.90;;;;;;5054226;28;20561;-83
2022/06/22 13:13:19;;;;;;;10.20;3.43;;;20.60;99.90;;;;;;5051296;28;20451;-83
2022/06/22 13:15:52;;;;;;;8.00;3.40;;;20.80;99.90;;;;;;5054172;28;20521;-84
2022/06/22 13:18:26;;;;;;;7.00;3.33;;;21.10;99.90;;;;;;5057083;28;20463;-83
2022/06/22 13:21:00;;;;;;;9.23;3.63;;;21.20;99.90;;;;;;5054746;28;20461;-83
2022/06/22 13:23:37;;;;;;;7.10;3.53;;;21.10;99.90;;;;;;5053197;28;20953;-83
2022/06/22 13:26:13;;;;;;;12.73;3.27;;;21.20;99.90;;;;;;5053980;28;20474;-83
2022/06/22 13:28:51;;;;;;;12.50;3.50;;;21.20;99.90;;;;;;5053579;28;20458;-83
2022/06/22 13:31:22;;;;;;;7.50;2.70;;;21.20;99.90;;;;;;5047832;28;20934;-83
2022/06/22 13:33:53;;;;;;;8.03;3.37;;;21.20;99.90;;;;;;5053879;28;20840;-84
2022/06/22 13:36:30;;;;;;;8.53;3.93;;;21.20;99.90;;;;;;5053559;28;21027;-85
2022/06/22 13:39:04;;;;;;;13.07;3.93;;;21.20;99.90;;;;;;5052467;28;20451;-85
2022/06/22 13:42:04;;;;;;;7.30;3.40;;;21.50;99.90;;;;;;5050731;28;20449;-83
2022/06/22 13:44:47;;;;;;;7.60;3.37;;;21.60;99.90;;;;;;5048764;28;20496;-84
2022/06/22 13:47:37;;;;;;;13.70;3.80;;;21.70;99.90;;;;;;5053549;28;20450;-83
2022/06/22 13:50:26;;;;;;;6.60;3.33;;;21.90;99.90;;;;;;5053321;28;20453;-84
2022/06/22 13:52:55;;;;;;;7.13;3.43;;;22.30;99.90;;;;;;5051508;28;20446;-84
2022/06/22 13:55:39;;;;;;;8.37;3.40;;;22.70;99.90;;;;;;5053385;28;20796;-85
2022/06/22 13:58:13;;;;;;;5.17;2.90;;;23.10;99.90;;;;;;5045053;28;20450;-84
2022/06/22 14:00:56;;;;;;;9.07;3.43;;;23.40;99.90;;;;;;5053699;28;20565;-84